Time;durP1;ratioP1;P1;durP2;ratioP2;P2;SDS_P1;SDS_P2;PMS_P1;PMS_P2;Temp;Humidity;BMP_temperature;BMP_pressure;BME280_temperature;BME280_humidity;BME280_pressure;Samples;Min_cycle;Max_cycle;Signal;HPM_P1;HPM_P2
2021/09/23 00:04:40;;;;;;;45.27;42.17;;;;;;;14.13;100.00;102407.67;1941189;74;33115;-68
2021/09/23 00:10:06;;;;;;;47.63;44.50;;;;;;;14.01;100.00;102408.45;1940904;74;32998;-75
2021/09/23 00:15:34;;;;;;;45.90;42.70;;;;;;;13.97;100.00;102403.12;1941073;74;33458;-68
2021/09/23 00:21:04;;;;;;;49.00;45.60;;;;;;;13.89;100.00;102405.02;1941017;74;32992;-68
2021/09/23 00:26:29;;;;;;;47.30;44.00;;;;;;;14.12;100.00;102408.78;1941119;74;33005;-75
2021/09/23 00:31:53;;;;;;;47.80;44.57;;;;;;;14.11;100.00;102409.91;1940925;74;32990;-75
2021/09/23 00:37:23;;;;;;;47.83;44.53;;;;;;;14.16;100.00;102416.09;1940979;74;33048;-75
2021/09/23 00:42:50;;;;;;;45.70;42.63;;;;;;;13.73;100.00;102406.04;1941192;74;33103;-75
2021/09/23 00:48:16;;;;;;;46.23;43.03;;;;;;;13.75;100.00;102394.02;1941028;74;33148;-69
2021/09/23 00:53:41;;;;;;;47.17;43.97;;;;;;;14.15;100.00;102383.66;1941085;74;33449;-75
2021/09/23 00:59:06;;;;;;;46.27;42.97;;;;;;;13.90;100.00;102382.97;1940990;74;32988;-75
2021/09/23 01:04:30;;;;;;;46.90;43.70;;;;;;;13.86;100.00;102385.17;1941127;74;33476;-75
2021/09/23 01:09:56;;;;;;;45.80;42.70;;;;;;;14.00;100.00;102386.35;1940915;74;32982;-75
2021/09/23 01:15:28;;;;;;;44.33;41.23;;;;;;;13.78;100.00;102371.13;1940928;74;33000;-68
2021/09/23 01:20:53;;;;;;;46.43;43.43;;;;;;;13.95;100.00;102371.80;1941079;74;33481;-68
2021/09/23 01:26:37;;;;;;;46.70;43.70;;;;;;;13.99;100.00;102353.38;2009816;71;32829;-67
2021/09/23 01:32:02;;;;;;;42.77;39.97;;;;;;;14.22;100.00;102357.69;1940926;74;33017;-68
2021/09/23 01:37:34;;;;;;;42.83;40.13;;;;;;;14.34;100.00;102356.89;1941224;74;33462;-68
2021/09/23 01:42:59;;;;;;;45.20;42.40;;;;;;;14.40;100.00;102329.28;1940819;74;33056;-75
2021/09/23 01:48:24;;;;;;;43.57;40.87;;;;;;;14.47;100.00;102328.45;1940864;74;33492;-68
2021/09/23 01:53:48;;;;;;;44.20;41.40;;;;;;;14.51;100.00;102311.95;1940855;74;33085;-74
2021/09/23 01:59:12;;;;;;;44.37;41.57;;;;;;;14.55;100.00;102305.53;1940798;74;32995;-75
2021/09/23 02:04:43;;;;;;;44.60;41.77;;;;;;;14.59;100.00;102312.25;1940903;74;32991;-68
2021/09/23 02:10:12;;;;;;;46.13;43.20;;;;;;;14.55;100.00;102309.73;1940808;74;33062;-69
2021/09/23 02:15:36;;;;;;;43.50;40.80;;;;;;;14.62;100.00;102300.25;1940861;74;32990;-75
2021/09/23 02:21:01;;;;;;;43.10;40.40;;;;;;;14.71;100.00;102296.64;1940943;74;32995;-68
2021/09/23 02:26:25;;;;;;;45.47;42.67;;;;;;;14.79;100.00;102304.47;1941045;74;33648;-74
2021/09/23 02:31:50;;;;;;;46.20;43.23;;;;;;;14.79;100.00;102296.64;1940970;74;33058;-68
2021/09/23 02:37:15;;;;;;;48.37;45.47;;;;;;;14.77;100.00;102292.70;1941179;74;33553;-75
2021/09/23 02:42:42;;;;;;;48.83;45.63;;;;;;;14.80;100.00;102297.77;1940852;74;32983;-74
2021/09/23 02:48:07;;;;;;;46.87;43.97;;;;;;;14.84;100.00;102298.89;1941132;74;33474;-68
2021/09/23 02:53:31;;;;;;;47.83;44.63;;;;;;;14.95;100.00;102289.37;1941187;74;33590;-68
2021/09/23 02:58:55;;;;;;;48.17;45.03;;;;;;;15.05;100.00;102281.54;1941127;74;33099;-75
2021/09/23 03:04:20;;;;;;;50.77;47.67;;;;;;;15.04;100.00;102278.45;1941072;74;32970;-75
2021/09/23 03:09:44;;;;;;;51.43;48.33;;;;;;;15.10;100.00;102280.70;1941031;74;33469;-75
2021/09/23 03:15:10;;;;;;;48.87;45.83;;;;;;;15.15;100.00;102275.07;1941033;74;33542;-75
2021/09/23 03:20:35;;;;;;;49.40;46.50;;;;;;;15.18;100.00;102273.13;1941017;74;33469;-68
2021/09/23 03:26:00;;;;;;;48.83;45.87;;;;;;;15.23;100.00;102270.33;1940790;74;32968;-68
2021/09/23 03:31:24;;;;;;;50.70;47.70;;;;;;;15.14;100.00;102249.07;1940833;74;32998;-68
2021/09/23 03:36:48;;;;;;;48.87;45.97;;;;;;;15.01;100.00;102224.45;1940823;74;33099;-69
2021/09/23 03:42:13;;;;;;;50.03;46.93;;;;;;;14.92;100.00;102222.78;1940900;74;33057;-75
2021/09/23 03:47:37;;;;;;;48.73;45.63;;;;;;;14.69;100.00;102217.74;1940805;74;32983;-68
2021/09/23 03:53:04;;;;;;;50.90;47.63;;;;;;;14.40;100.00;102218.00;1940834;74;33080;-68
2021/09/23 03:58:29;;;;;;;52.03;48.83;;;;;;;14.24;100.00;102225.50;1941051;74;33628;-75
2021/09/23 04:03:53;;;;;;;50.90;47.60;;;;;;;14.19;100.00;102214.86;1940828;74;32991;-75
2021/09/23 04:09:23;;;;;;;51.43;48.03;;;;;;;14.18;100.00;102203.39;1940956;74;32974;-68
2021/09/23 04:14:48;;;;;;;53.27;49.77;;;;;;;14.19;100.00;102202.28;1941083;74;33521;-75
2021/09/23 04:20:13;;;;;;;53.63;50.23;;;;;;;14.00;100.00;102206.14;1940907;74;33055;-74
2021/09/23 04:25:38;;;;;;;52.80;49.30;;;;;;;13.97;100.00;102199.72;1941041;74;33471;-74
2021/09/23 04:31:04;;;;;;;53.00;49.60;;;;;;;13.94;100.00;102205.86;1940845;74;32984;-68
2021/09/23 04:36:28;;;;;;;52.17;48.67;;;;;;;13.95;100.00;102190.75;1941018;74;33529;-68
2021/09/23 04:41:52;;;;;;;51.37;47.87;;;;;;;13.91;100.00;102189.63;1941009;74;33077;-68
2021/09/23 04:47:16;;;;;;;51.23;47.83;;;;;;;13.90;100.00;102190.77;1940865;74;32986;-68
2021/09/23 04:52:41;;;;;;;53.47;49.87;;;;;;;13.80;100.00;102173.41;1941181;74;33479;-75
2021/09/23 04:58:06;;;;;;;53.77;50.17;;;;;;;13.78;100.00;102177.61;1941092;74;32961;-68
2021/09/23 05:03:31;;;;;;;49.10;45.80;;;;;;;13.82;100.00;102173.96;1941123;74;33529;-68
2021/09/23 05:08:55;;;;;;;49.17;45.87;;;;;;;13.80;100.00;102165.03;1940912;74;32988;-68
2021/09/23 05:14:20;;;;;;;49.93;46.53;;;;;;;13.76;100.00;102170.89;1941026;74;33080;-75
2021/09/23 05:19:49;;;;;;;49.87;46.40;;;;;;;13.65;100.00;102169.16;1940933;74;33541;-68
2021/09/23 05:25:14;;;;;;;49.77;46.57;;;;;;;13.57;100.00;102166.89;1940954;74;33042;-68
2021/09/23 05:30:41;;;;;;;49.53;46.23;;;;;;;13.61;100.00;102175.00;1940952;74;33041;-75
2021/09/23 05:36:06;;;;;;;47.20;44.00;;;;;;;13.59;100.00;102170.27;1941170;74;33525;-68
2021/09/23 05:41:30;;;;;;;47.10;44.10;;;;;;;13.59;100.00;102183.67;1941002;74;33055;-68
2021/09/23 05:46:57;;;;;;;48.10;45.10;;;;;;;13.58;100.00;102187.58;1941048;74;33520;-74
2021/09/23 05:52:22;;;;;;;46.50;43.40;;;;;;;13.42;100.00;102197.00;1940884;74;33038;-68
2021/09/23 05:57:47;;;;;;;47.47;44.07;;;;;;;13.41;100.00;102186.94;1940928;74;32997;-68
2021/09/23 06:03:13;;;;;;;45.20;42.30;;;;;;;13.52;100.00;102179.47;1940900;74;32981;-75
2021/09/23 06:08:38;;;;;;;47.77;44.57;;;;;;;13.48;100.00;102164.34;1941106;74;33521;-75
2021/09/23 06:14:02;;;;;;;45.60;42.70;;;;;;;13.57;100.00;102169.69;1940931;74;33108;-68
2021/09/23 06:19:26;;;;;;;47.83;44.83;;;;;;;13.53;100.00;102165.77;1940956;74;33076;-69
2021/09/23 06:24:51;;;;;;;46.30;43.30;;;;;;;13.68;100.00;102165.84;1941191;74;33407;-69
2021/09/23 06:30:22;;;;;;;46.07;43.07;;;;;;;13.63;100.00;102159.67;1941099;74;33498;-69
2021/09/23 06:35:46;;;;;;;46.00;43.10;;;;;;;13.67;100.00;102152.98;1941172;74;33451;-74
2021/09/23 06:41:11;;;;;;;46.20;43.27;;;;;;;13.79;100.00;102149.38;1940942;74;33066;-76
2021/09/23 06:46:42;;;;;;;48.00;44.73;;;;;;;13.84;100.00;102141.58;1940896;74;33002;-76
2021/09/23 06:52:08;;;;;;;46.80;43.67;;;;;;;13.94;100.00;102143.85;1940846;74;32998;-68
2021/09/23 06:57:32;;;;;;;45.37;42.47;;;;;;;13.95;100.00;102148.30;1941028;74;33483;-76
2021/09/23 07:02:56;;;;;;;46.27;43.37;;;;;;;14.14;100.00;102141.63;1940913;74;33051;-76
2021/09/23 07:08:21;;;;;;;46.53;43.60;;;;;;;14.12;100.00;102144.69;1941049;74;32975;-68
2021/09/23 07:13:45;;;;;;;47.00;44.00;;;;;;;14.30;100.00;102145.27;1940876;74;33068;-77
2021/09/23 07:19:10;;;;;;;45.23;42.17;;;;;;;14.41;100.00;102136.66;1940910;74;33059;-77
2021/09/23 07:24:53;;;;;;;46.20;43.13;;;;;;;14.63;100.00;102126.58;2009841;71;33396;-77
2021/09/23 07:30:19;;;;;;;46.67;43.67;;;;;;;14.86;100.00;102119.53;1940892;74;33084;-73
2021/09/23 07:35:44;;;;;;;46.23;43.43;;;;;;;15.12;100.00;102130.09;1940889;74;32987;-68
2021/09/23 07:41:09;;;;;;;46.20;43.20;;;;;;;15.38;100.00;102139.53;1940966;74;33061;-75
2021/09/23 07:46:34;;;;;;;44.23;41.57;;;;;;;15.75;100.00;102138.25;1941023;74;33568;-75
2021/09/23 07:52:00;;;;;;;40.30;37.70;;;;;;;16.08;100.00;102138.91;1940879;74;33081;-68
2021/09/23 07:57:24;;;;;;;42.70;40.00;;;;;;;16.18;100.00;102134.61;1941155;74;33538;-74
2021/09/23 08:02:49;;;;;;;43.50;40.60;;;;;;;16.37;100.00;102134.20;1941129;74;33144;-75
2021/09/23 08:08:13;;;;;;;41.40;38.60;;;;;;;16.33;100.00;102142.92;1941084;74;33479;-68
2021/09/23 08:13:37;;;;;;;42.97;40.03;;;;;;;16.53;100.00;102142.47;1941126;74;31547;-68
2021/09/23 08:19:02;;;;;;;43.37;40.47;;;;;;;16.45;100.00;102155.16;1940912;74;33059;-68
2021/09/23 08:24:26;;;;;;;41.97;39.03;;;;;;;16.47;100.00;102153.47;1940909;74;32972;-76
2021/09/23 08:29:51;;;;;;;41.20;38.30;;;;;;;16.44;100.00;102141.41;1940937;74;33006;-68
2021/09/23 08:35:16;;;;;;;42.20;39.40;;;;;;;16.45;100.00;102145.34;1940936;74;31041;-76
2021/09/23 08:40:40;;;;;;;40.90;38.07;;;;;;;16.60;100.00;102136.81;1941098;74;33472;-77
2021/09/23 08:46:06;;;;;;;42.10;39.10;;;;;;;16.69;100.00;102132.23;1940985;74;31101;-76
2021/09/23 08:51:31;;;;;;;43.33;40.53;;;;;;;16.85;100.00;102134.35;1940966;74;33037;-76
2021/09/23 08:56:59;;;;;;;41.50;38.80;;;;;;;17.00;100.00;102128.56;1941074;74;33489;-69
2021/09/23 09:02:41;;;;;;;41.20;38.33;;;;;;;17.21;100.00;102125.79;2009867;71;33470;-76
2021/09/23 09:08:21;;;;;;;41.03;38.30;;;;;;;17.36;100.00;102115.52;1940956;74;31150;-76
2021/09/23 09:13:47;;;;;;;43.47;40.10;;;;;;;17.50;100.00;102127.70;1940976;74;31043;-69
2021/09/23 09:19:12;;;;;;;39.43;36.83;;;;;;;17.66;100.00;102122.17;1940959;74;31044;-69
2021/09/23 09:24:47;;;;;;;40.03;37.17;;;;;;;17.78;100.00;102125.94;1940896;74;31115;-76
2021/09/23 09:30:28;;;;;;;38.40;35.90;;;;;;;17.83;100.00;102117.44;1940860;74;33490;-77
2021/09/23 09:35:53;;;;;;;40.47;37.90;;;;;;;18.10;100.00;102126.00;1941124;74;31524;-78
2021/09/23 09:41:19;;;;;;;39.27;36.77;;;;;;;18.29;100.00;102123.18;1941135;74;31601;-69
2021/09/23 09:46:49;;;;;;;39.17;36.67;;;;;;;18.46;100.00;102123.45;1941103;74;31140;-77
2021/09/23 09:52:14;;;;;;;39.60;37.20;;;;;;;18.54;100.00;102122.78;1941127;74;31565;-69
2021/09/23 09:57:47;;;;;;;39.60;37.27;;;;;;;18.45;100.00;102107.70;1941017;74;31160;-69
2021/09/23 10:03:12;;;;;;;40.27;37.67;;;;;;;18.62;100.00;102099.55;1941080;74;33675;-78
2021/09/23 10:08:39;;;;;;;39.47;36.70;;;;;;;18.82;100.00;102103.99;1940956;74;33494;-69
2021/09/23 10:14:04;;;;;;;39.17;36.77;;;;;;;18.89;100.00;102091.73;1940930;74;31023;-77
2021/09/23 10:19:29;;;;;;;39.80;37.17;;;;;;;19.02;100.00;102092.33;1941058;74;31500;-77
2021/09/23 10:24:56;;;;;;;38.23;35.73;;;;;;;19.13;100.00;102092.94;1940870;74;31095;-77
2021/09/23 10:30:22;;;;;;;37.17;34.87;;;;;;;19.35;100.00;102079.80;1940900;74;31090;-69
2021/09/23 10:35:49;;;;;;;37.37;34.87;;;;;;;19.61;100.00;102070.23;1941151;74;31500;-77
2021/09/23 10:41:15;;;;;;;37.07;34.73;;;;;;;19.52;100.00;102067.33;1941099;74;31560;-68
2021/09/23 10:46:46;;;;;;;38.10;35.80;;;;;;;19.64;100.00;102058.92;1941126;74;31531;-77
2021/09/23 10:52:11;;;;;;;38.50;36.13;;;;;;;19.83;100.00;102056.76;1940913;74;31096;-70
2021/09/23 10:57:36;;;;;;;38.13;35.73;;;;;;;19.81;100.00;102052.03;1940854;74;31119;-77
2021/09/23 11:03:06;;;;;;;38.60;35.87;;;;;;;19.88;100.00;102048.17;1941086;74;31068;-69
2021/09/23 11:08:32;;;;;;;36.20;34.10;;;;;;;20.08;100.00;102036.95;1940878;74;31011;-69
2021/09/23 11:13:56;;;;;;;37.30;35.07;;;;;;;20.15;100.00;102039.58;1940952;74;31518;-69
2021/09/23 11:19:23;;;;;;;37.00;34.73;;;;;;;20.25;100.00;102025.80;1940903;74;31076;-69
2021/09/23 11:24:50;;;;;;;39.90;37.40;;;;;;;20.43;100.00;102027.61;1924975;74;28087;-69
2021/09/23 11:30:17;;;;;;;38.87;36.43;;;;;;;20.56;100.00;102015.39;1941118;74;31562;-68
2021/09/23 11:35:46;;;;;;;39.37;37.00;;;;;;;20.58;100.00;102001.77;1940991;74;31032;-69
2021/09/23 11:41:12;;;;;;;36.40;34.20;;;;;;;20.65;100.00;101997.08;1941023;74;31549;-69
2021/09/23 11:46:37;;;;;;;37.87;35.40;;;;;;;20.77;100.00;101997.30;1940909;74;31006;-67
2021/09/23 11:52:01;;;;;;;37.67;35.47;;;;;;;20.65;100.00;101992.84;1941063;74;31138;-77
2021/09/23 11:57:30;;;;;;;38.07;35.93;;;;;;;20.57;100.00;101986.59;1940898;74;31090;-78
2021/09/23 12:02:56;;;;;;;37.53;35.30;;;;;;;20.65;100.00;101982.96;1941123;74;31549;-69
2021/09/23 12:08:29;;;;;;;38.47;36.27;;;;;;;20.69;100.00;101971.27;1941098;74;31634;-77
2021/09/23 12:14:15;;;;;;;38.97;36.67;;;;;;;20.68;100.00;101971.01;2016656;71;30880;-77
2021/09/23 12:20:01;;;;;;;37.40;35.30;;;;;;;20.66;100.00;101971.93;2014982;71;30875;-69
2021/09/23 12:25:27;;;;;;;38.13;35.93;;;;;;;20.59;100.00;101979.44;1941127;74;31595;-69
2021/09/23 12:30:59;;;;;;;37.00;34.77;;;;;;;20.63;100.00;101973.39;1941103;74;31510;-77
2021/09/23 12:36:33;;;;;;;35.38;33.45;;;;;;;20.83;100.00;101969.17;1940968;74;31567;-68
2021/09/23 12:42:16;;;;;;;35.93;33.83;;;;;;;20.87;100.00;101956.05;1941083;74;31523;-70
2021/09/23 12:48:00;;;;;;;35.90;33.70;;;;;;;20.96;100.00;101954.09;1941084;74;31099;-76
2021/09/23 12:53:21;;;;;;;35.77;33.63;;;;;;;20.96;100.00;101957.48;1940984;74;31053;-77
2021/09/23 12:58:45;;;;;;;37.50;35.20;;;;;;;20.93;100.00;101949.66;1940875;74;31067;-69
2021/09/23 13:04:23;;;;;;;36.00;33.90;;;;;;;21.00;100.00;101952.84;1941118;74;31631;-77
2021/09/23 13:13:13;;;;;;;35.80;33.80;;;;;;;21.38;100.00;101951.10;1940926;74;31103;-77
2021/09/23 13:18:41;;;;;;;34.73;32.73;;;;;;;21.32;100.00;101943.36;1941050;74;31118;-77
2021/09/23 13:24:06;;;;;;;35.85;33.70;;;;;;;21.18;100.00;101951.75;1940959;74;31072;-70
2021/09/23 13:29:32;;;;;;;34.17;32.27;;;;;;;21.20;100.00;101953.66;1940933;74;31013;-69
2021/09/23 13:34:56;;;;;;;35.93;33.73;;;;;;;21.28;100.00;101954.24;1940880;74;31094;-76
2021/09/23 13:40:21;;;;;;;35.23;33.23;;;;;;;21.33;100.00;101949.84;1941100;74;31003;-77
2021/09/23 13:45:45;;;;;;;34.58;32.67;;;;;;;21.30;100.00;101942.04;1941205;74;31276;-78
2021/09/23 13:51:13;;;;;;;34.70;32.87;;;;;;;21.37;100.00;101944.36;1941118;74;31077;-77
2021/09/23 13:56:36;;;;;;;35.13;33.23;;;;;;;21.38;100.00;101943.20;1941063;74;31012;-77
2021/09/23 14:02:01;;;;;;;36.08;34.08;;;;;;;21.41;100.00;101936.30;1940942;74;31011;-77
2021/09/23 14:07:25;;;;;;;33.77;31.87;;;;;;;21.56;100.00;101927.91;1941104;74;31458;-69
2021/09/23 14:13:09;;;;;;;33.98;31.97;;;;;;;21.62;100.00;101925.98;2009762;71;30954;-68
2021/09/23 14:18:33;;;;;;;33.50;31.60;;;;;;;21.46;100.00;101915.51;1940952;74;31003;-69
2021/09/23 14:23:57;;;;;;;38.60;36.43;;;;;;;21.30;100.00;101920.27;1940933;74;31081;-68
2021/09/23 14:29:22;;;;;;;34.73;32.85;;;;;;;21.59;100.00;101923.83;1941120;74;31506;-69
2021/09/23 14:34:48;;;;;;;35.25;33.30;;;;;;;21.67;100.00;101914.50;1941168;74;31060;-69
2021/09/23 14:40:14;;;;;;;36.40;34.55;;;;;;;21.53;100.00;101907.34;1940986;74;31172;-70
2021/09/23 14:45:48;;;;;;;36.00;34.17;;;;;;;21.25;100.00;101909.69;1941073;74;31539;-67
2021/09/23 14:51:12;;;;;;;34.75;32.75;;;;;;;21.23;100.00;101910.02;1940899;74;31026;-75
2021/09/23 14:56:37;;;;;;;36.55;34.45;;;;;;;21.39;100.00;101908.13;1941178;74;31493;-76
2021/09/23 15:02:01;;;;;;;35.77;33.70;;;;;;;21.19;100.00;101913.83;1940965;74;31012;-69
2021/09/23 15:07:26;;;;;;;36.23;34.13;;;;;;;21.21;100.00;101909.53;1941149;74;31066;-69
2021/09/23 15:12:50;;;;;;;37.00;34.97;;;;;;;21.27;100.00;101896.05;1941098;74;31092;-68
2021/09/23 15:18:15;;;;;;;35.98;34.18;;;;;;;21.25;100.00;101885.09;1940993;74;31117;-70
2021/09/23 15:23:42;;;;;;;35.07;33.17;;;;;;;21.14;100.00;101885.16;1940930;74;31100;-77
2021/09/23 15:29:07;;;;;;;35.00;33.07;;;;;;;21.23;100.00;101881.75;1941070;74;31472;-79
2021/09/23 15:31:35;;;;;;;34.95;33.05;;;;;;;;;;1905006;75;24142;-76
2021/09/23 15:36:59;;;;;;;33.70;31.90;;;;;;;21.35;100.00;101872.59;1941179;74;31002;-74
2021/09/23 15:42:25;;;;;;;35.78;33.78;;;;;;;21.36;100.00;101877.09;1941033;74;31110;-69
2021/09/23 15:47:50;;;;;;;35.63;33.63;;;;;;;21.41;100.00;101865.62;1941326;74;30995;-69
2021/09/23 15:53:16;;;;;;;36.68;34.78;;;;;;;21.32;100.00;101865.62;1941266;74;31095;-76
2021/09/23 15:58:41;;;;;;;37.73;35.80;;;;;;;21.25;100.00;101862.48;1940988;74;31017;-76
2021/09/23 16:04:06;;;;;;;39.90;37.85;;;;;;;21.02;100.00;101853.87;1940920;74;31017;-69
2021/09/23 16:09:30;;;;;;;37.42;35.43;;;;;;;21.06;100.00;101861.09;1941066;74;31087;-77
2021/09/23 16:14:54;;;;;;;37.33;35.20;;;;;;;21.01;100.00;101851.40;1941046;74;31128;-76
2021/09/23 16:20:19;;;;;;;39.15;36.95;;;;;;;20.97;100.00;101854.03;1941088;74;31113;-69
2021/09/23 16:25:44;;;;;;;38.75;36.55;;;;;;;20.89;100.00;101841.57;1941124;74;31596;-77
2021/09/23 16:31:10;;;;;;;38.38;36.05;;;;;;;20.91;100.00;101851.14;1941168;74;31704;-70
2021/09/23 16:36:36;;;;;;;37.80;35.53;;;;;;;20.74;100.00;101841.23;1941139;74;31522;-78
2021/09/23 16:42:01;;;;;;;37.47;35.27;;;;;;;20.65;100.00;101853.92;1941076;74;31568;-70
2021/09/23 16:47:27;;;;;;;39.45;37.00;;;;;;;20.64;100.00;101852.25;1940969;74;31130;-78
2021/09/23 16:52:52;;;;;;;39.42;36.98;;;;;;;20.64;100.00;101852.25;1940981;74;31148;-76
2021/09/23 16:58:16;;;;;;;41.08;38.58;;;;;;;20.52;100.00;101845.00;1941095;74;31555;-77
2021/09/23 17:03:41;;;;;;;42.23;39.93;;;;;;;20.41;100.00;101847.86;1940982;74;31189;-77
2021/09/23 17:09:08;;;;;;;41.93;39.50;;;;;;;20.37;100.00;101836.97;1940836;74;31106;-77
2021/09/23 17:14:32;;;;;;;39.90;37.40;;;;;;;20.28;100.00;101834.70;1940934;74;31049;-75
2021/09/23 17:19:57;;;;;;;41.60;39.30;;;;;;;20.69;100.00;101839.97;1941024;74;31049;-76
2021/09/23 17:25:22;;;;;;;42.93;40.43;;;;;;;20.65;100.00;101836.98;1940990;74;31062;-69
2021/09/23 17:30:47;;;;;;;43.23;40.63;;;;;;;20.19;100.00;101840.31;1941312;74;31525;-77
2021/09/23 17:36:11;;;;;;;42.13;39.63;;;;;;;20.07;100.00;101844.91;1941121;74;31173;-77
2021/09/23 17:41:36;;;;;;;45.43;42.73;;;;;;;19.96;100.00;101847.16;1941265;74;31059;-68
2021/09/23 17:47:02;;;;;;;44.40;41.60;;;;;;;19.78;100.00;101821.44;1941222;74;31060;-69
2021/09/23 17:52:26;;;;;;;45.70;43.10;;;;;;;19.89;100.00;101854.69;1941115;74;31650;-76
2021/09/23 17:57:51;;;;;;;45.03;42.43;;;;;;;19.73;100.00;101859.05;1941098;74;33531;-70
2021/09/23 18:03:15;;;;;;;45.97;43.07;;;;;;;19.63;100.00;101861.33;1941017;74;31151;-77
2021/09/23 18:08:39;;;;;;;39.30;36.90;;;;;;;19.50;100.00;101858.84;1941178;74;31538;-80
2021/09/23 18:14:06;;;;;;;39.70;37.30;;;;;;;19.36;100.00;101867.31;1941056;74;31035;-78
2021/09/23 18:19:30;;;;;;;40.40;37.83;;;;;;;19.24;100.00;101864.81;1941027;74;31544;-79
2021/09/23 18:24:55;;;;;;;40.33;37.80;;;;;;;19.15;100.00;101869.54;1941181;74;31034;-70
2021/09/23 18:30:20;;;;;;;41.97;39.17;;;;;;;19.13;100.00;101877.46;1941185;74;31063;-69
2021/09/23 18:35:46;;;;;;;41.93;38.77;;;;;;;18.57;100.00;101888.00;1941159;74;31108;-69
2021/09/23 18:41:10;;;;;;;39.87;37.13;;;;;;;18.42;100.00;101897.31;1940923;74;31104;-69
2021/09/23 18:46:34;;;;;;;40.03;37.23;;;;;;;18.43;100.00;101900.39;1941346;74;33488;-69
2021/09/23 18:52:01;;;;;;;41.50;38.70;;;;;;;18.26;100.00;101911.44;1940889;74;31111;-68
2021/09/23 18:57:26;;;;;;;40.23;37.33;;;;;;;18.26;100.00;101907.21;1940895;74;31039;-69
2021/09/23 19:02:50;;;;;;;38.30;35.70;;;;;;;18.40;100.00;101906.66;1941031;74;31028;-79
2021/09/23 19:08:14;;;;;;;41.70;38.83;;;;;;;18.53;100.00;101908.07;1941190;74;31610;-71
2021/09/23 19:13:39;;;;;;;42.23;39.33;;;;;;;18.36;100.00;101906.99;1941173;74;31574;-75
2021/09/23 19:19:03;;;;;;;41.03;38.23;;;;;;;18.03;100.00;101915.51;1941085;74;33704;-74
2021/09/23 19:24:35;;;;;;;41.20;38.30;;;;;;;18.22;100.00;101920.23;1940920;74;31048;-72
2021/09/23 19:30:00;;;;;;;39.40;36.73;;;;;;;18.57;100.00;101916.14;1941014;74;31105;-78
2021/09/23 19:35:26;;;;;;;39.17;36.67;;;;;;;18.58;100.00;101920.63;1940948;74;31144;-76
2021/09/23 19:40:52;;;;;;;40.33;37.77;;;;;;;18.56;100.00;101917.88;1941165;74;31132;-71
2021/09/23 19:46:17;;;;;;;40.10;37.30;;;;;;;18.53;100.00;101917.08;1940963;74;31043;-77
2021/09/23 19:51:41;;;;;;;39.00;36.50;;;;;;;18.40;100.00;101919.32;1941173;74;31096;-72
2021/09/23 19:57:09;;;;;;;39.43;36.90;;;;;;;18.37;100.00;101919.92;1941037;74;33517;-73
2021/09/23 20:02:34;;;;;;;39.27;36.77;;;;;;;18.38;100.00;101925.25;1940986;74;31124;-69
2021/09/23 20:07:59;;;;;;;39.57;37.03;;;;;;;18.31;100.00;101926.81;1940918;74;31047;-70
2021/09/23 20:13:23;;;;;;;40.03;37.43;;;;;;;18.08;100.00;101925.83;1941106;74;31043;-70
2021/09/23 20:18:48;;;;;;;41.13;38.43;;;;;;;18.05;100.00;101930.11;1941116;74;33464;-71
2021/09/23 20:24:12;;;;;;;39.70;37.10;;;;;;;18.10;100.00;101929.98;1940917;74;31046;-79
2021/09/23 20:29:36;;;;;;;41.23;38.63;;;;;;;18.02;100.00;101935.48;1941139;74;31088;-76
2021/09/23 20:35:03;;;;;;;41.33;38.43;;;;;;;18.02;100.00;101927.05;1941176;74;31640;-71
2021/09/23 20:40:27;;;;;;;41.10;38.40;;;;;;;17.94;100.00;101928.61;1941007;74;31191;-70
2021/09/23 20:45:56;;;;;;;40.80;38.10;;;;;;;17.86;100.00;101932.13;1941149;74;31040;-72
2021/09/23 20:51:21;;;;;;;42.07;39.00;;;;;;;17.82;100.00;101929.67;1940921;74;31036;-72
2021/09/23 20:56:48;;;;;;;44.60;41.47;;;;;;;17.80;100.00;101923.51;1941117;74;31118;-76
2021/09/23 21:02:14;;;;;;;42.63;39.73;;;;;;;17.68;100.00;101930.19;1941185;74;31064;-76
2021/09/23 21:07:38;;;;;;;42.97;40.17;;;;;;;17.63;100.00;101921.84;1941046;74;31170;-76
2021/09/23 21:13:06;;;;;;;40.80;38.10;;;;;;;17.55;100.00;101930.94;1940888;74;31110;-72
2021/09/23 21:18:30;;;;;;;45.87;42.97;;;;;;;17.38;100.00;101933.45;1940812;74;31056;-77
2021/09/23 21:23:55;;;;;;;44.63;41.63;;;;;;;17.30;100.00;101924.59;1940907;74;33554;-72
2021/09/23 21:29:20;;;;;;;44.43;41.53;;;;;;;17.21;100.00;101928.38;1941197;74;31558;-72
2021/09/23 21:34:45;;;;;;;43.77;40.93;;;;;;;17.22;100.00;101933.70;1940977;74;31143;-71
2021/09/23 21:40:14;;;;;;;44.13;41.13;;;;;;;17.21;100.00;101936.23;1941304;74;33482;-70
2021/09/23 21:45:39;;;;;;;44.97;42.07;;;;;;;17.00;100.00;101939.64;1940896;74;31117;-71
2021/09/23 21:51:04;;;;;;;44.80;41.80;;;;;;;17.03;100.00;101939.86;1940997;74;31058;-70
2021/09/23 21:56:29;;;;;;;43.70;40.90;;;;;;;16.89;100.00;101938.96;1940933;74;31123;-70
2021/09/23 22:01:53;;;;;;;43.73;40.73;;;;;;;16.91;100.00;101939.48;1941307;74;31535;-70
2021/09/23 22:07:17;;;;;;;44.13;41.13;;;;;;;16.88;100.00;101935.04;1941086;74;31214;-78
2021/09/23 22:12:42;;;;;;;43.13;40.13;;;;;;;16.87;100.00;101924.94;1940883;74;31118;-69
2021/09/23 22:18:08;;;;;;;43.10;40.27;;;;;;;16.79;100.00;101934.31;1941002;74;32990;-79
2021/09/23 22:23:33;;;;;;;44.10;41.17;;;;;;;16.74;100.00;101938.58;2062255;69;30922;-70
2021/09/23 22:28:57;;;;;;;46.03;42.83;;;;;;;16.68;100.00;101931.95;1940729;74;33095;-79
2021/09/23 22:34:22;;;;;;;43.67;40.57;;;;;;;16.72;100.00;101932.45;1940795;74;32990;-70
2021/09/23 22:39:46;;;;;;;44.67;41.77;;;;;;;16.73;100.00;101922.03;1940973;74;31043;-79
2021/09/23 22:45:13;;;;;;;44.43;41.47;;;;;;;16.51;100.00;101917.54;1941094;74;33576;-70
2021/09/23 22:50:37;;;;;;;42.57;39.77;;;;;;;16.52;100.00;101917.22;1941099;74;31060;-79
2021/09/23 22:56:09;;;;;;;43.23;40.33;;;;;;;16.47;100.00;101925.72;1941187;74;31039;-79
2021/09/23 23:01:40;;;;;;;43.70;40.70;;;;;;;16.51;100.00;101918.94;1941106;74;31128;-79
2021/09/23 23:07:10;;;;;;;44.37;41.23;;;;;;;16.55;100.00;101919.45;1941240;74;31542;-79
2021/09/23 23:12:34;;;;;;;43.97;40.63;;;;;;;16.37;100.00;101916.02;1940864;74;33035;-70
2021/09/23 23:17:59;;;;;;;44.47;41.27;;;;;;;16.35;100.00;101915.46;1941155;74;31560;-70
2021/09/23 23:23:43;;;;;;;44.43;41.23;;;;;;;16.37;100.00;101909.84;2009662;71;32896;-70
2021/09/23 23:29:07;;;;;;;44.57;41.53;;;;;;;16.16;100.00;101915.41;1940932;74;32986;-69
2021/09/23 23:34:32;;;;;;;46.27;43.07;;;;;;;16.19;100.00;101902.19;1940953;74;31117;-69
2021/09/23 23:39:56;;;;;;;47.80;44.50;;;;;;;16.17;100.00;101903.04;1941143;74;31523;-79
2021/09/23 23:45:21;;;;;;;46.00;42.70;;;;;;;15.99;100.00;101897.38;1940945;74;33478;-70
2021/09/23 23:50:45;;;;;;;45.30;42.10;;;;;;;15.89;100.00;101908.95;1977592;72;33011;-78
2021/09/23 23:56:09;;;;;;;45.47;42.27;;;;;;;15.80;100.00;101905.67;1940901;74;33045;-79
